sensor_id;sensor_type;location;lat;lon;timestamp;temperature;humidity
14101;DHT22;7127;49.372;8.166;2022-10-16T00:00:00;20.60;69.20
14101;DHT22;7127;49.372;8.166;2022-10-16T00:02:27;20.60;69.20
14101;DHT22;7127;49.372;8.166;2022-10-16T00:04:54;20.60;69.20
14101;DHT22;7127;49.372;8.166;2022-10-16T00:07:21;20.60;69.10
14101;DHT22;7127;49.372;8.166;2022-10-16T00:09:50;20.60;69.00
14101;DHT22;7127;49.372;8.166;2022-10-16T00:12:17;20.60;69.00
14101;DHT22;7127;49.372;8.166;2022-10-16T00:14:44;20.60;68.90
14101;DHT22;7127;49.372;8.166;2022-10-16T00:17:11;20.60;68.90
14101;DHT22;7127;49.372;8.166;2022-10-16T00:19:38;20.60;68.90
14101;DHT22;7127;49.372;8.166;2022-10-16T00:22:05;20.60;68.80
14101;DHT22;7127;49.372;8.166;2022-10-16T00:24:32;20.50;68.70
14101;DHT22;7127;49.372;8.166;2022-10-16T00:27:00;20.50;68.80
14101;DHT22;7127;49.372;8.166;2022-10-16T00:29:27;20.50;68.80
14101;DHT22;7127;49.372;8.166;2022-10-16T00:31:54;20.50;68.90
14101;DHT22;7127;49.372;8.166;2022-10-16T00:34:21;20.50;69.00
14101;DHT22;7127;49.372;8.166;2022-10-16T00:36:48;20.50;69.10
14101;DHT22;7127;49.372;8.166;2022-10-16T00:39:15;20.50;69.10
14101;DHT22;7127;49.372;8.166;2022-10-16T00:41:42;20.50;69.20
14101;DHT22;7127;49.372;8.166;2022-10-16T00:44:46;20.50;69.20
14101;DHT22;7127;49.372;8.166;2022-10-16T00:47:19;20.50;69.40
14101;DHT22;7127;49.372;8.166;2022-10-16T00:49:48;20.50;69.20
14101;DHT22;7127;49.372;8.166;2022-10-16T00:52:16;20.50;69.20
14101;DHT22;7127;49.372;8.166;2022-10-16T00:54:46;20.50;69.30
14101;DHT22;7127;49.372;8.166;2022-10-16T00:57:13;20.50;69.30
14101;DHT22;7127;49.372;8.166;2022-10-16T00:59:41;20.50;69.30
14101;DHT22;7127;49.372;8.166;2022-10-16T01:02:13;20.50;69.40
14101;DHT22;7127;49.372;8.166;2022-10-16T01:04:42;20.50;69.40
14101;DHT22;7127;49.372;8.166;2022-10-16T01:07:13;20.50;69.40
14101;DHT22;7127;49.372;8.166;2022-10-16T01:09:49;20.50;69.40
14101;DHT22;7127;49.372;8.166;2022-10-16T01:12:25;20.50;69.30
14101;DHT22;7127;49.372;8.166;2022-10-16T01:14:58;20.50;69.20
14101;DHT22;7127;49.372;8.166;2022-10-16T01:17:34;20.50;69.10
14101;DHT22;7127;49.372;8.166;2022-10-16T01:20:14;20.50;69.10
14101;DHT22;7127;49.372;8.166;2022-10-16T01:22:54;20.50;69.00
14101;DHT22;7127;49.372;8.166;2022-10-16T01:25:31;20.50;68.90
14101;DHT22;7127;49.372;8.166;2022-10-16T01:28:06;20.50;68.90
14101;DHT22;7127;49.372;8.166;2022-10-16T01:30:36;20.50;68.80
14101;DHT22;7127;49.372;8.166;2022-10-16T01:33:08;20.50;68.80
14101;DHT22;7127;49.372;8.166;2022-10-16T01:35:39;20.50;68.90
14101;DHT22;7127;49.372;8.166;2022-10-16T01:38:10;20.40;68.80
14101;DHT22;7127;49.372;8.166;2022-10-16T01:40:42;20.40;68.80
14101;DHT22;7127;49.372;8.166;2022-10-16T01:43:14;20.40;68.90
14101;DHT22;7127;49.372;8.166;2022-10-16T01:45:44;20.40;69.00
14101;DHT22;7127;49.372;8.166;2022-10-16T01:48:12;20.40;69.00
14101;DHT22;7127;49.372;8.166;2022-10-16T01:50:41;20.30;68.90
14101;DHT22;7127;49.372;8.166;2022-10-16T01:53:12;20.30;69.00
14101;DHT22;7127;49.372;8.166;2022-10-16T01:55:45;20.30;69.10
14101;DHT22;7127;49.372;8.166;2022-10-16T01:58:15;20.30;69.10
14101;DHT22;7127;49.372;8.166;2022-10-16T02:00:44;20.30;69.10
14101;DHT22;7127;49.372;8.166;2022-10-16T02:03:14;20.30;69.20
14101;DHT22;7127;49.372;8.166;2022-10-16T02:05:46;20.30;69.10
14101;DHT22;7127;49.372;8.166;2022-10-16T02:08:13;20.30;69.10
14101;DHT22;7127;49.372;8.166;2022-10-16T02:10:41;20.30;69.00
14101;DHT22;7127;49.372;8.166;2022-10-16T02:13:10;20.30;69.10
14101;DHT22;7127;49.372;8.166;2022-10-16T02:15:40;20.30;69.10
14101;DHT22;7127;49.372;8.166;2022-10-16T02:18:07;20.30;69.20
14101;DHT22;7127;49.372;8.166;2022-10-16T02:20:39;20.20;69.10
14101;DHT22;7127;49.372;8.166;2022-10-16T02:23:12;20.20;69.20
14101;DHT22;7127;49.372;8.166;2022-10-16T02:25:42;20.20;69.30
14101;DHT22;7127;49.372;8.166;2022-10-16T02:28:15;20.20;69.20
14101;DHT22;7127;49.372;8.166;2022-10-16T02:30:47;20.30;69.40
14101;DHT22;7127;49.372;8.166;2022-10-16T02:33:16;20.20;69.30
14101;DHT22;7127;49.372;8.166;2022-10-16T02:35:46;20.20;69.40
14101;DHT22;7127;49.372;8.166;2022-10-16T02:38:15;20.20;69.40
14101;DHT22;7127;49.372;8.166;2022-10-16T02:40:43;20.20;69.40
14101;DHT22;7127;49.372;8.166;2022-10-16T02:43:10;20.10;69.30
14101;DHT22;7127;49.372;8.166;2022-10-16T02:45:38;20.20;69.40
14101;DHT22;7127;49.372;8.166;2022-10-16T02:48:07;20.20;69.40
14101;DHT22;7127;49.372;8.166;2022-10-16T02:50:34;20.10;69.30
14101;DHT22;7127;49.372;8.166;2022-10-16T02:53:01;20.10;69.30
14101;DHT22;7127;49.372;8.166;2022-10-16T02:55:28;20.10;69.80
14101;DHT22;7127;49.372;8.166;2022-10-16T02:57:55;20.10;69.40
14101;DHT22;7127;49.372;8.166;2022-10-16T03:00:22;20.10;69.40
14101;DHT22;7127;49.372;8.166;2022-10-16T03:02:49;20.10;69.50
14101;DHT22;7127;49.372;8.166;2022-10-16T03:05:18;20.10;69.50
14101;DHT22;7127;49.372;8.166;2022-10-16T03:07:45;20.10;69.50
14101;DHT22;7127;49.372;8.166;2022-10-16T03:10:12;20.10;69.50
14101;DHT22;7127;49.372;8.166;2022-10-16T03:12:39;20.10;69.50
14101;DHT22;7127;49.372;8.166;2022-10-16T03:15:07;20.10;69.60
14101;DHT22;7127;49.372;8.166;2022-10-16T03:17:34;20.10;69.60
14101;DHT22;7127;49.372;8.166;2022-10-16T03:20:01;20.10;69.60
14101;DHT22;7127;49.372;8.166;2022-10-16T03:22:29;20.10;69.50
14101;DHT22;7127;49.372;8.166;2022-10-16T03:24:56;20.10;69.50
14101;DHT22;7127;49.372;8.166;2022-10-16T03:27:23;20.10;69.50
14101;DHT22;7127;49.372;8.166;2022-10-16T03:29:50;20.10;69.40
14101;DHT22;7127;49.372;8.166;2022-10-16T03:32:17;20.10;69.40
14101;DHT22;7127;49.372;8.166;2022-10-16T03:34:45;20.10;69.40
14101;DHT22;7127;49.372;8.166;2022-10-16T03:37:12;20.10;69.40
14101;DHT22;7127;49.372;8.166;2022-10-16T03:39:41;20.10;69.20
14101;DHT22;7127;49.372;8.166;2022-10-16T03:42:08;20.10;69.30
14101;DHT22;7127;49.372;8.166;2022-10-16T03:44:35;20.00;69.20
14101;DHT22;7127;49.372;8.166;2022-10-16T03:47:02;20.00;69.10
14101;DHT22;7127;49.372;8.166;2022-10-16T03:49:29;20.00;69.10
14101;DHT22;7127;49.372;8.166;2022-10-16T03:51:56;20.00;70.00
14101;DHT22;7127;49.372;8.166;2022-10-16T03:54:23;20.00;69.40
14101;DHT22;7127;49.372;8.166;2022-10-16T03:56:51;19.90;69.40
14101;DHT22;7127;49.372;8.166;2022-10-16T03:59:18;20.00;69.50
14101;DHT22;7127;49.372;8.166;2022-10-16T04:01:45;20.00;69.70
14101;DHT22;7127;49.372;8.166;2022-10-16T04:04:12;19.90;69.60
14101;DHT22;7127;49.372;8.166;2022-10-16T04:06:39;19.90;69.60
14101;DHT22;7127;49.372;8.166;2022-10-16T04:09:06;19.90;69.60
14101;DHT22;7127;49.372;8.166;2022-10-16T04:11:33;19.90;69.60
14101;DHT22;7127;49.372;8.166;2022-10-16T04:14:01;19.90;69.60
14101;DHT22;7127;49.372;8.166;2022-10-16T04:16:28;19.90;69.50
14101;DHT22;7127;49.372;8.166;2022-10-16T04:18:55;19.90;69.50
14101;DHT22;7127;49.372;8.166;2022-10-16T04:21:22;19.90;69.50
14101;DHT22;7127;49.372;8.166;2022-10-16T04:23:49;19.90;69.60
14101;DHT22;7127;49.372;8.166;2022-10-16T04:26:16;19.90;69.60
14101;DHT22;7127;49.372;8.166;2022-10-16T04:28:43;19.90;69.60
14101;DHT22;7127;49.372;8.166;2022-10-16T04:31:12;19.80;69.50
14101;DHT22;7127;49.372;8.166;2022-10-16T04:33:39;19.80;69.60
14101;DHT22;7127;49.372;8.166;2022-10-16T04:36:08;19.80;69.60
14101;DHT22;7127;49.372;8.166;2022-10-16T04:38:35;19.80;69.60
14101;DHT22;7127;49.372;8.166;2022-10-16T04:41:03;19.80;69.60
14101;DHT22;7127;49.372;8.166;2022-10-16T04:43:30;19.90;69.70
14101;DHT22;7127;49.372;8.166;2022-10-16T04:45:57;19.90;69.70
14101;DHT22;7127;49.372;8.166;2022-10-16T04:48:25;19.90;69.70
14101;DHT22;7127;49.372;8.166;2022-10-16T04:50:52;19.80;69.60
14101;DHT22;7127;49.372;8.166;2022-10-16T04:53:19;19.80;69.60
14101;DHT22;7127;49.372;8.166;2022-10-16T04:55:46;19.80;69.50
14101;DHT22;7127;49.372;8.166;2022-10-16T04:58:13;19.80;69.40
14101;DHT22;7127;49.372;8.166;2022-10-16T05:00:40;19.80;69.40
14101;DHT22;7127;49.372;8.166;2022-10-16T05:03:07;19.80;69.40
14101;DHT22;7127;49.372;8.166;2022-10-16T05:05:36;19.80;69.50
14101;DHT22;7127;49.372;8.166;2022-10-16T05:08:03;19.70;69.40
14101;DHT22;7127;49.372;8.166;2022-10-16T05:10:30;19.70;69.30
14101;DHT22;7127;49.372;8.166;2022-10-16T05:12:57;19.70;69.40
14101;DHT22;7127;49.372;8.166;2022-10-16T05:15:24;19.70;69.40
14101;DHT22;7127;49.372;8.166;2022-10-16T05:17:53;19.70;69.40
14101;DHT22;7127;49.372;8.166;2022-10-16T05:20:20;19.70;69.50
14101;DHT22;7127;49.372;8.166;2022-10-16T05:22:49;19.70;69.60
14101;DHT22;7127;49.372;8.166;2022-10-16T05:25:16;19.70;69.60
14101;DHT22;7127;49.372;8.166;2022-10-16T05:27:46;19.70;69.60
14101;DHT22;7127;49.372;8.166;2022-10-16T05:30:13;19.70;69.50
14101;DHT22;7127;49.372;8.166;2022-10-16T05:32:40;19.70;69.50
14101;DHT22;7127;49.372;8.166;2022-10-16T05:35:08;19.70;69.60
14101;DHT22;7127;49.372;8.166;2022-10-16T05:37:35;19.70;69.70
14101;DHT22;7127;49.372;8.166;2022-10-16T05:40:04;19.60;69.60
14101;DHT22;7127;49.372;8.166;2022-10-16T05:42:31;19.60;69.70
14101;DHT22;7127;49.372;8.166;2022-10-16T05:44:58;19.60;69.70
14101;DHT22;7127;49.372;8.166;2022-10-16T05:47:25;19.60;69.80
14101;DHT22;7127;49.372;8.166;2022-10-16T05:49:52;19.70;70.00
14101;DHT22;7127;49.372;8.166;2022-10-16T05:52:19;19.70;69.80
14101;DHT22;7127;49.372;8.166;2022-10-16T05:54:46;19.60;69.70
14101;DHT22;7127;49.372;8.166;2022-10-16T05:57:14;19.70;69.80
14101;DHT22;7127;49.372;8.166;2022-10-16T05:59:41;19.70;70.70
14101;DHT22;7127;49.372;8.166;2022-10-16T06:02:11;19.70;70.10
14101;DHT22;7127;49.372;8.166;2022-10-16T06:04:39;19.60;70.00
14101;DHT22;7127;49.372;8.166;2022-10-16T06:07:06;19.70;70.10
14101;DHT22;7127;49.372;8.166;2022-10-16T06:09:33;19.60;70.10
14101;DHT22;7127;49.372;8.166;2022-10-16T06:12:00;19.70;70.20
14101;DHT22;7127;49.372;8.166;2022-10-16T06:14:28;19.70;70.20
14101;DHT22;7127;49.372;8.166;2022-10-16T06:16:55;19.70;70.30
14101;DHT22;7127;49.372;8.166;2022-10-16T06:19:23;19.70;70.30
14101;DHT22;7127;49.372;8.166;2022-10-16T06:21:50;19.70;70.30
14101;DHT22;7127;49.372;8.166;2022-10-16T06:24:17;19.70;70.30
14101;DHT22;7127;49.372;8.166;2022-10-16T06:26:44;19.70;70.40
14101;DHT22;7127;49.372;8.166;2022-10-16T06:29:11;19.70;70.40
14101;DHT22;7127;49.372;8.166;2022-10-16T06:31:39;19.70;70.50
14101;DHT22;7127;49.372;8.166;2022-10-16T06:34:08;19.70;70.50
14101;DHT22;7127;49.372;8.166;2022-10-16T06:36:36;19.70;70.60
14101;DHT22;7127;49.372;8.166;2022-10-16T06:39:03;19.70;70.50
14101;DHT22;7127;49.372;8.166;2022-10-16T06:41:31;19.70;70.50
14101;DHT22;7127;49.372;8.166;2022-10-16T06:43:58;19.80;70.70
14101;DHT22;7127;49.372;8.166;2022-10-16T06:46:25;19.80;70.80
14101;DHT22;7127;49.372;8.166;2022-10-16T06:48:54;19.80;70.90
14101;DHT22;7127;49.372;8.166;2022-10-16T06:51:22;19.80;70.80
14101;DHT22;7127;49.372;8.166;2022-10-16T06:53:52;19.90;70.90
14101;DHT22;7127;49.372;8.166;2022-10-16T06:56:21;19.90;70.80
14101;DHT22;7127;49.372;8.166;2022-10-16T06:58:48;19.90;70.80
14101;DHT22;7127;49.372;8.166;2022-10-16T07:01:17;19.90;70.80
14101;DHT22;7127;49.372;8.166;2022-10-16T07:03:46;20.00;70.90
14101;DHT22;7127;49.372;8.166;2022-10-16T07:06:16;20.00;70.90
14101;DHT22;7127;49.372;8.166;2022-10-16T07:08:45;20.00;70.90
14101;DHT22;7127;49.372;8.166;2022-10-16T07:11:14;20.00;70.90
14101;DHT22;7127;49.372;8.166;2022-10-16T07:13:43;20.00;70.90
14101;DHT22;7127;49.372;8.166;2022-10-16T07:16:12;20.10;71.00
14101;DHT22;7127;49.372;8.166;2022-10-16T07:18:39;20.10;71.10
14101;DHT22;7127;49.372;8.166;2022-10-16T07:21:10;20.20;71.30
14101;DHT22;7127;49.372;8.166;2022-10-16T07:23:38;20.10;71.20
14101;DHT22;7127;49.372;8.166;2022-10-16T07:26:06;20.20;71.20
14101;DHT22;7127;49.372;8.166;2022-10-16T07:28:34;20.20;71.20
14101;DHT22;7127;49.372;8.166;2022-10-16T07:31:01;20.30;71.20
14101;DHT22;7127;49.372;8.166;2022-10-16T07:33:29;20.30;71.20
14101;DHT22;7127;49.372;8.166;2022-10-16T07:35:56;20.40;71.30
14101;DHT22;7127;49.372;8.166;2022-10-16T07:38:23;20.40;71.10
14101;DHT22;7127;49.372;8.166;2022-10-16T07:40:57;20.40;71.20
14101;DHT22;7127;49.372;8.166;2022-10-16T07:43:25;20.50;71.40
14101;DHT22;7127;49.372;8.166;2022-10-16T07:45:52;20.50;71.40
14101;DHT22;7127;49.372;8.166;2022-10-16T07:48:21;20.50;71.50
14101;DHT22;7127;49.372;8.166;2022-10-16T07:50:48;20.50;71.90
14101;DHT22;7127;49.372;8.166;2022-10-16T07:53:15;20.60;71.00
14101;DHT22;7127;49.372;8.166;2022-10-16T07:55:43;20.60;70.90
14101;DHT22;7127;49.372;8.166;2022-10-16T07:58:11;20.60;70.80
14101;DHT22;7127;49.372;8.166;2022-10-16T08:00:38;20.70;70.90
14101;DHT22;7127;49.372;8.166;2022-10-16T08:03:05;20.60;70.60
14101;DHT22;7127;49.372;8.166;2022-10-16T08:05:33;20.70;71.40
14101;DHT22;7127;49.372;8.166;2022-10-16T08:08:00;20.70;70.50
14101;DHT22;7127;49.372;8.166;2022-10-16T08:10:32;20.70;70.50
14101;DHT22;7127;49.372;8.166;2022-10-16T08:12:59;20.70;71.40
14101;DHT22;7127;49.372;8.166;2022-10-16T08:15:33;20.70;70.50
14101;DHT22;7127;49.372;8.166;2022-10-16T08:18:11;20.70;70.60
14101;DHT22;7127;49.372;8.166;2022-10-16T08:20:54;20.70;70.60
14101;DHT22;7127;49.372;8.166;2022-10-16T08:23:21;20.70;70.80
14101;DHT22;7127;49.372;8.166;2022-10-16T08:25:48;20.80;70.90
14101;DHT22;7127;49.372;8.166;2022-10-16T08:28:15;20.80;70.90
14101;DHT22;7127;49.372;8.166;2022-10-16T08:30:43;20.80;71.10
14101;DHT22;7127;49.372;8.166;2022-10-16T08:33:11;20.90;71.30
14101;DHT22;7127;49.372;8.166;2022-10-16T08:35:38;20.90;71.30
14101;DHT22;7127;49.372;8.166;2022-10-16T08:38:05;21.00;71.40
14101;DHT22;7127;49.372;8.166;2022-10-16T08:40:34;21.00;71.40
14101;DHT22;7127;49.372;8.166;2022-10-16T08:43:21;21.00;71.30
14101;DHT22;7127;49.372;8.166;2022-10-16T08:46:06;21.10;71.50
14101;DHT22;7127;49.372;8.166;2022-10-16T08:48:43;21.10;71.50
14101;DHT22;7127;49.372;8.166;2022-10-16T08:51:18;21.20;71.60
14101;DHT22;7127;49.372;8.166;2022-10-16T08:53:50;21.20;71.50
14101;DHT22;7127;49.372;8.166;2022-10-16T08:56:18;21.30;71.60
14101;DHT22;7127;49.372;8.166;2022-10-16T08:58:46;21.30;71.60
14101;DHT22;7127;49.372;8.166;2022-10-16T09:01:17;21.40;71.70
14101;DHT22;7127;49.372;8.166;2022-10-16T09:04:09;21.50;71.60
14101;DHT22;7127;49.372;8.166;2022-10-16T09:06:45;21.60;71.70
14101;DHT22;7127;49.372;8.166;2022-10-16T09:09:32;21.60;71.60
14101;DHT22;7127;49.372;8.166;2022-10-16T09:12:05;21.70;71.60
14101;DHT22;7127;49.372;8.166;2022-10-16T09:14:48;21.80;71.60
14101;DHT22;7127;49.372;8.166;2022-10-16T09:17:30;21.80;71.40
14101;DHT22;7127;49.372;8.166;2022-10-16T09:20:13;21.90;71.40
14101;DHT22;7127;49.372;8.166;2022-10-16T09:22:41;21.90;71.30
14101;DHT22;7127;49.372;8.166;2022-10-16T09:25:14;22.00;71.40
14101;DHT22;7127;49.372;8.166;2022-10-16T09:27:45;22.10;71.40
14101;DHT22;7127;49.372;8.166;2022-10-16T09:30:16;22.10;71.30
14101;DHT22;7127;49.372;8.166;2022-10-16T09:32:47;22.20;71.30
14101;DHT22;7127;49.372;8.166;2022-10-16T09:35:19;22.20;71.10
14101;DHT22;7127;49.372;8.166;2022-10-16T09:37:50;22.30;70.80
14101;DHT22;7127;49.372;8.166;2022-10-16T09:40:33;22.30;70.50
14101;DHT22;7127;49.372;8.166;2022-10-16T09:43:06;22.30;70.40
14101;DHT22;7127;49.372;8.166;2022-10-16T09:45:39;22.30;70.30
14101;DHT22;7127;49.372;8.166;2022-10-16T09:48:17;22.30;70.30
14101;DHT22;7127;49.372;8.166;2022-10-16T09:50:55;22.40;70.30
14101;DHT22;7127;49.372;8.166;2022-10-16T09:53:22;22.40;70.20
14101;DHT22;7127;49.372;8.166;2022-10-16T09:55:51;22.40;70.50
14101;DHT22;7127;49.372;8.166;2022-10-16T09:58:22;22.50;70.60
14101;DHT22;7127;49.372;8.166;2022-10-16T10:01:03;22.50;70.60
14101;DHT22;7127;49.372;8.166;2022-10-16T10:06:34;22.60;70.60
14101;DHT22;7127;49.372;8.166;2022-10-16T10:09:06;22.60;70.70
14101;DHT22;7127;49.372;8.166;2022-10-16T10:11:45;22.70;70.90
14101;DHT22;7127;49.372;8.166;2022-10-16T10:14:26;22.70;70.70
14101;DHT22;7127;49.372;8.166;2022-10-16T10:17:10;22.80;70.80
14101;DHT22;7127;49.372;8.166;2022-10-16T10:19:39;22.80;70.40
14101;DHT22;7127;49.372;8.166;2022-10-16T10:22:24;22.90;70.60
14101;DHT22;7127;49.372;8.166;2022-10-16T10:27:48;23.00;70.40
14101;DHT22;7127;49.372;8.166;2022-10-16T10:30:22;23.00;70.30
14101;DHT22;7127;49.372;8.166;2022-10-16T10:33:08;23.10;70.90
14101;DHT22;7127;49.372;8.166;2022-10-16T10:35:42;23.10;70.10
14101;DHT22;7127;49.372;8.166;2022-10-16T10:38:24;23.10;70.10
14101;DHT22;7127;49.372;8.166;2022-10-16T10:41:03;23.20;69.90
14101;DHT22;7127;49.372;8.166;2022-10-16T10:43:47;23.20;69.50
14101;DHT22;7127;49.372;8.166;2022-10-16T10:46:23;23.30;69.60
14101;DHT22;7127;49.372;8.166;2022-10-16T10:49:17;23.40;69.70
14101;DHT22;7127;49.372;8.166;2022-10-16T10:52:03;23.40;68.90
14101;DHT22;7127;49.372;8.166;2022-10-16T10:55:13;23.50;68.90
14101;DHT22;7127;49.372;8.166;2022-10-16T10:58:00;23.50;68.90
14101;DHT22;7127;49.372;8.166;2022-10-16T11:01:04;23.60;68.60
14101;DHT22;7127;49.372;8.166;2022-10-16T11:03:47;23.60;68.30
14101;DHT22;7127;49.372;8.166;2022-10-16T11:06:26;23.60;68.40
14101;DHT22;7127;49.372;8.166;2022-10-16T11:09:00;23.70;68.80
14101;DHT22;7127;49.372;8.166;2022-10-16T11:11:34;23.70;68.60
14101;DHT22;7127;49.372;8.166;2022-10-16T11:14:04;23.70;68.50
14101;DHT22;7127;49.372;8.166;2022-10-16T11:16:37;23.70;68.60
14101;DHT22;7127;49.372;8.166;2022-10-16T11:19:25;23.80;68.40
14101;DHT22;7127;49.372;8.166;2022-10-16T11:22:01;23.90;68.20
14101;DHT22;7127;49.372;8.166;2022-10-16T11:24:35;23.90;68.20
14101;DHT22;7127;49.372;8.166;2022-10-16T11:27:09;24.00;68.00
14101;DHT22;7127;49.372;8.166;2022-10-16T11:29:46;24.00;67.70
14101;DHT22;7127;49.372;8.166;2022-10-16T11:32:22;24.00;67.40
14101;DHT22;7127;49.372;8.166;2022-10-16T11:34:53;24.00;67.30
14101;DHT22;7127;49.372;8.166;2022-10-16T11:37:27;24.10;67.40
14101;DHT22;7127;49.372;8.166;2022-10-16T11:40:05;24.10;67.10
14101;DHT22;7127;49.372;8.166;2022-10-16T11:42:48;24.10;66.90
14101;DHT22;7127;49.372;8.166;2022-10-16T11:45:25;24.20;66.90
14101;DHT22;7127;49.372;8.166;2022-10-16T11:47:58;24.20;66.80
14101;DHT22;7127;49.372;8.166;2022-10-16T11:50:31;24.30;66.80
14101;DHT22;7127;49.372;8.166;2022-10-16T11:53:03;24.30;66.80
14101;DHT22;7127;49.372;8.166;2022-10-16T11:55:34;24.30;66.80
14101;DHT22;7127;49.372;8.166;2022-10-16T11:58:07;24.40;67.00
14101;DHT22;7127;49.372;8.166;2022-10-16T12:00:39;24.40;66.80
14101;DHT22;7127;49.372;8.166;2022-10-16T12:03:14;24.50;66.90
14101;DHT22;7127;49.372;8.166;2022-10-16T12:05:55;24.50;66.60
14101;DHT22;7127;49.372;8.166;2022-10-16T12:08:26;24.60;66.30
14101;DHT22;7127;49.372;8.166;2022-10-16T12:11:06;24.60;66.70
14101;DHT22;7127;49.372;8.166;2022-10-16T12:13:37;24.70;66.10
14101;DHT22;7127;49.372;8.166;2022-10-16T12:16:22;24.80;66.30
14101;DHT22;7127;49.372;8.166;2022-10-16T12:18:49;24.80;66.20
14101;DHT22;7127;49.372;8.166;2022-10-16T12:21:17;24.90;66.20
14101;DHT22;7127;49.372;8.166;2022-10-16T12:23:49;24.90;65.80
14101;DHT22;7127;49.372;8.166;2022-10-16T12:26:24;24.90;65.30
14101;DHT22;7127;49.372;8.166;2022-10-16T12:28:54;25.00;64.90
14101;DHT22;7127;49.372;8.166;2022-10-16T12:31:21;25.00;65.20
14101;DHT22;7127;49.372;8.166;2022-10-16T12:33:57;25.10;65.30
14101;DHT22;7127;49.372;8.166;2022-10-16T12:36:30;25.10;64.70
14101;DHT22;7127;49.372;8.166;2022-10-16T12:38:58;25.10;64.90
14101;DHT22;7127;49.372;8.166;2022-10-16T12:41:27;25.10;65.10
14101;DHT22;7127;49.372;8.166;2022-10-16T12:43:56;25.10;65.00
14101;DHT22;7127;49.372;8.166;2022-10-16T12:46:35;25.20;64.90
14101;DHT22;7127;49.372;8.166;2022-10-16T12:49:21;25.20;64.60
14101;DHT22;7127;49.372;8.166;2022-10-16T12:51:50;25.20;64.30
14101;DHT22;7127;49.372;8.166;2022-10-16T12:54:19;25.10;64.40
14101;DHT22;7127;49.372;8.166;2022-10-16T12:57:13;25.20;65.10
14101;DHT22;7127;49.372;8.166;2022-10-16T12:59:54;25.20;63.90
14101;DHT22;7127;49.372;8.166;2022-10-16T13:03:17;25.10;64.00
14101;DHT22;7127;49.372;8.166;2022-10-16T13:05:59;25.10;63.70
14101;DHT22;7127;49.372;8.166;2022-10-16T13:08:51;25.10;63.80
14101;DHT22;7127;49.372;8.166;2022-10-16T13:11:30;25.00;63.60
14101;DHT22;7127;49.372;8.166;2022-10-16T13:14:25;25.00;63.60
14101;DHT22;7127;49.372;8.166;2022-10-16T13:17:09;24.90;63.40
14101;DHT22;7127;49.372;8.166;2022-10-16T13:20:01;24.90;63.60
14101;DHT22;7127;49.372;8.166;2022-10-16T13:22:41;24.80;63.70
14101;DHT22;7127;49.372;8.166;2022-10-16T13:25:21;24.80;63.80
14101;DHT22;7127;49.372;8.166;2022-10-16T13:27:54;24.70;63.80
14101;DHT22;7127;49.372;8.166;2022-10-16T13:30:24;24.70;64.00
14101;DHT22;7127;49.372;8.166;2022-10-16T13:32:58;24.70;64.30
14101;DHT22;7127;49.372;8.166;2022-10-16T13:35:29;24.70;64.20
14101;DHT22;7127;49.372;8.166;2022-10-16T13:38:05;24.60;64.10
14101;DHT22;7127;49.372;8.166;2022-10-16T13:40:33;24.70;64.30
14101;DHT22;7127;49.372;8.166;2022-10-16T13:43:01;24.60;64.10
14101;DHT22;7127;49.372;8.166;2022-10-16T13:45:31;24.60;64.10
14101;DHT22;7127;49.372;8.166;2022-10-16T13:48:29;24.60;64.10
14101;DHT22;7127;49.372;8.166;2022-10-16T13:51:05;24.60;64.00
14101;DHT22;7127;49.372;8.166;2022-10-16T13:53:39;24.60;64.10
14101;DHT22;7127;49.372;8.166;2022-10-16T13:56:12;24.50;64.00
14101;DHT22;7127;49.372;8.166;2022-10-16T13:58:40;24.50;64.00
14101;DHT22;7127;49.372;8.166;2022-10-16T14:01:18;24.40;64.10
14101;DHT22;7127;49.372;8.166;2022-10-16T14:03:49;24.40;64.10
14101;DHT22;7127;49.372;8.166;2022-10-16T14:06:20;24.40;64.30
14101;DHT22;7127;49.372;8.166;2022-10-16T14:09:06;24.40;64.30
14101;DHT22;7127;49.372;8.166;2022-10-16T14:11:41;24.30;64.30
14101;DHT22;7127;49.372;8.166;2022-10-16T14:14:14;24.30;64.30
14101;DHT22;7127;49.372;8.166;2022-10-16T14:16:44;24.30;64.40
14101;DHT22;7127;49.372;8.166;2022-10-16T14:19:29;24.30;64.50
14101;DHT22;7127;49.372;8.166;2022-10-16T14:22:36;24.20;64.50
14101;DHT22;7127;49.372;8.166;2022-10-16T14:25:22;24.20;64.70
14101;DHT22;7127;49.372;8.166;2022-10-16T14:28:13;24.20;64.80
14101;DHT22;7127;49.372;8.166;2022-10-16T14:30:50;24.10;64.80
14101;DHT22;7127;49.372;8.166;2022-10-16T14:33:23;24.10;64.90
14101;DHT22;7127;49.372;8.166;2022-10-16T14:36:12;24.10;65.00
14101;DHT22;7127;49.372;8.166;2022-10-16T14:38:42;24.10;65.20
14101;DHT22;7127;49.372;8.166;2022-10-16T14:41:12;24.10;65.20
14101;DHT22;7127;49.372;8.166;2022-10-16T14:43:42;24.10;65.20
14101;DHT22;7127;49.372;8.166;2022-10-16T14:46:13;24.10;65.10
14101;DHT22;7127;49.372;8.166;2022-10-16T14:48:41;24.10;65.20
14101;DHT22;7127;49.372;8.166;2022-10-16T14:51:13;24.10;65.30
14101;DHT22;7127;49.372;8.166;2022-10-16T14:53:49;24.10;65.10
14101;DHT22;7127;49.372;8.166;2022-10-16T14:56:42;24.10;65.10
14101;DHT22;7127;49.372;8.166;2022-10-16T14:59:19;24.10;65.00
14101;DHT22;7127;49.372;8.166;2022-10-16T15:01:47;24.10;65.00
14101;DHT22;7127;49.372;8.166;2022-10-16T15:04:15;24.10;65.00
14101;DHT22;7127;49.372;8.166;2022-10-16T15:07:01;24.10;64.90
14101;DHT22;7127;49.372;8.166;2022-10-16T15:09:42;24.20;64.70
14101;DHT22;7127;49.372;8.166;2022-10-16T15:12:23;24.20;64.70
14101;DHT22;7127;49.372;8.166;2022-10-16T15:15:21;24.10;64.50
14101;DHT22;7127;49.372;8.166;2022-10-16T15:18:04;24.10;64.30
14101;DHT22;7127;49.372;8.166;2022-10-16T15:20:33;24.10;64.50
14101;DHT22;7127;49.372;8.166;2022-10-16T15:23:14;24.10;64.40
14101;DHT22;7127;49.372;8.166;2022-10-16T15:25:44;24.10;64.40
14101;DHT22;7127;49.372;8.166;2022-10-16T15:28:19;24.00;64.30
14101;DHT22;7127;49.372;8.166;2022-10-16T15:30:48;24.00;64.30
14101;DHT22;7127;49.372;8.166;2022-10-16T15:33:19;24.00;64.40
14101;DHT22;7127;49.372;8.166;2022-10-16T15:35:48;24.00;64.40
14101;DHT22;7127;49.372;8.166;2022-10-16T15:38:21;24.00;64.40
14101;DHT22;7127;49.372;8.166;2022-10-16T15:40:50;23.90;64.30
14101;DHT22;7127;49.372;8.166;2022-10-16T15:43:23;23.90;64.30
14101;DHT22;7127;49.372;8.166;2022-10-16T15:46:02;23.90;64.30
14101;DHT22;7127;49.372;8.166;2022-10-16T15:48:31;23.80;64.20
14101;DHT22;7127;49.372;8.166;2022-10-16T15:51:00;23.80;64.20
14101;DHT22;7127;49.372;8.166;2022-10-16T15:53:33;23.80;64.20
14101;DHT22;7127;49.372;8.166;2022-10-16T15:56:07;23.80;64.10
14101;DHT22;7127;49.372;8.166;2022-10-16T15:58:45;23.70;64.10
14101;DHT22;7127;49.372;8.166;2022-10-16T16:01:15;23.70;64.10
14101;DHT22;7127;49.372;8.166;2022-10-16T16:03:42;23.60;64.10
14101;DHT22;7127;49.372;8.166;2022-10-16T16:06:12;23.60;64.10
14101;DHT22;7127;49.372;8.166;2022-10-16T16:09:05;23.50;64.10
14101;DHT22;7127;49.372;8.166;2022-10-16T16:11:33;23.50;64.20
14101;DHT22;7127;49.372;8.166;2022-10-16T16:14:12;23.40;64.10
14101;DHT22;7127;49.372;8.166;2022-10-16T16:16:54;23.40;64.20
14101;DHT22;7127;49.372;8.166;2022-10-16T16:19:35;23.30;64.20
14101;DHT22;7127;49.372;8.166;2022-10-16T16:39:06;23.00;64.60